sensor_id;sensor_type;location;lat;lon;timestamp;pressure;altitude;pressure_sealevel;temperature;humidity
7888;BME280;3989;48.810;9.208;2023-03-26T00:01:16;98237.66;;;6.60;nan
7888;BME280;3989;48.810;9.208;2023-03-26T00:03:46;98158.50;;;6.00;nan
7888;BME280;3989;48.810;9.208;2023-03-26T00:06:21;98213.16;;;6.25;nan
7888;BME280;3989;48.810;9.208;2023-03-26T00:08:50;98150.19;;;5.71;nan
7888;BME280;3989;48.810;9.208;2023-03-26T00:11:20;98174.06;;;5.95;nan
7888;BME280;3989;48.810;9.208;2023-03-26T00:13:50;98245.28;;;6.22;nan
7888;BME280;3989;48.810;9.208;2023-03-26T00:16:19;98306.75;;;6.58;nan
7888;BME280;3989;48.810;9.208;2023-03-26T00:19:06;98199.81;;;5.85;nan
7888;BME280;3989;48.810;9.208;2023-03-26T00:21:46;98129.91;;;5.29;nan
7888;BME280;3989;48.810;9.208;2023-03-26T00:24:28;98257.66;;;6.06;nan
7888;BME280;3989;48.810;9.208;2023-03-26T00:38:26;98093.72;;;4.88;nan
7888;BME280;3989;48.810;9.208;2023-03-26T00:40:58;98209.56;;;5.68;nan
7888;BME280;3989;48.810;9.208;2023-03-26T00:43:31;98305.25;;;6.40;nan
7888;BME280;3989;48.810;9.208;2023-03-26T00:46:01;98226.03;;;5.96;nan
7888;BME280;3989;48.810;9.208;2023-03-26T00:51:12;98354.16;;;6.77;nan
7888;BME280;3989;48.810;9.208;2023-03-26T00:53:44;98222.94;;;6.17;nan
7888;BME280;3989;48.810;9.208;2023-03-26T00:56:14;98174.22;;;5.86;nan
7888;BME280;3989;48.810;9.208;2023-03-26T00:58:45;98297.63;;;6.69;nan
7888;BME280;3989;48.810;9.208;2023-03-26T01:01:16;98197.59;;;6.06;nan
7888;BME280;3989;48.810;9.208;2023-03-26T01:03:46;98204.72;;;6.14;nan
7888;BME280;3989;48.810;9.208;2023-03-26T01:06:20;98220.94;;;6.19;nan
7888;BME280;3989;48.810;9.208;2023-03-26T01:08:55;98211.31;;;6.18;nan
7888;BME280;3989;48.810;9.208;2023-03-26T01:11:30;98269.47;;;6.68;nan
7888;BME280;3989;48.810;9.208;2023-03-26T01:14:01;98024.72;;;5.23;nan
7888;BME280;3989;48.810;9.208;2023-03-26T01:16:35;98173.56;;;6.08;nan
7888;BME280;3989;48.810;9.208;2023-03-26T01:19:05;98174.41;;;6.16;nan
7888;BME280;3989;48.810;9.208;2023-03-26T01:21:37;98292.84;;;6.80;nan
7888;BME280;3989;48.810;9.208;2023-03-26T01:24:08;98287.19;;;6.83;nan
7888;BME280;3989;48.810;9.208;2023-03-26T01:29:45;98159.66;;;6.06;nan
7888;BME280;3989;48.810;9.208;2023-03-26T01:32:23;98160.81;;;6.19;nan
7888;BME280;3989;48.810;9.208;2023-03-26T01:35:12;98085.47;;;5.73;nan
7888;BME280;3989;48.810;9.208;2023-03-26T01:38:00;98267.31;;;6.88;nan
7888;BME280;3989;48.810;9.208;2023-03-26T01:40:41;98044.78;;;5.66;nan
7888;BME280;3989;48.810;9.208;2023-03-26T01:43:22;98177.16;;;6.63;nan
7888;BME280;3989;48.810;9.208;2023-03-26T01:45:57;98018.81;;;5.70;nan
7888;BME280;3989;48.810;9.208;2023-03-26T01:48:39;98187.59;;;6.81;nan
7888;BME280;3989;48.810;9.208;2023-03-26T01:51:25;98229.59;;;7.08;nan
7888;BME280;3989;48.810;9.208;2023-03-26T01:53:54;98013.31;;;5.79;nan
7888;BME280;3989;48.810;9.208;2023-03-26T01:56:34;98044.97;;;5.97;nan
7888;BME280;3989;48.810;9.208;2023-03-26T01:59:13;98176.81;;;6.74;nan
7888;BME280;3989;48.810;9.208;2023-03-26T02:01:51;98220.16;;;7.14;nan
7888;BME280;3989;48.810;9.208;2023-03-26T02:04:25;98018.13;;;5.92;nan
7888;BME280;3989;48.810;9.208;2023-03-26T02:07:09;98093.84;;;6.50;nan
7888;BME280;3989;48.810;9.208;2023-03-26T02:09:46;98216.00;;;7.19;nan
7888;BME280;3989;48.810;9.208;2023-03-26T02:12:18;98207.84;;;7.21;nan
7888;BME280;3989;48.810;9.208;2023-03-26T02:14:47;98091.19;;;6.58;nan
7888;BME280;3989;48.810;9.208;2023-03-26T02:17:14;98018.41;;;6.29;nan
7888;BME280;3989;48.810;9.208;2023-03-26T02:19:43;98173.19;;;7.22;nan
7888;BME280;3989;48.810;9.208;2023-03-26T02:22:12;98049.13;;;6.55;nan
7888;BME280;3989;48.810;9.208;2023-03-26T02:24:40;98009.28;;;6.24;nan
7888;BME280;3989;48.810;9.208;2023-03-26T02:27:07;98152.78;;;7.23;nan
7888;BME280;3989;48.810;9.208;2023-03-26T02:29:35;98145.31;;;7.26;nan
7888;BME280;3989;48.810;9.208;2023-03-26T02:32:05;98149.72;;;7.34;nan
7888;BME280;3989;48.810;9.208;2023-03-26T02:34:32;98146.91;;;7.35;nan
7888;BME280;3989;48.810;9.208;2023-03-26T02:36:59;98136.31;;;7.27;nan
7888;BME280;3989;48.810;9.208;2023-03-26T02:39:25;98127.09;;;7.23;nan
7888;BME280;3989;48.810;9.208;2023-03-26T02:41:52;98151.19;;;7.45;nan
7888;BME280;3989;48.810;9.208;2023-03-26T02:44:19;98144.56;;;7.40;nan
7888;BME280;3989;48.810;9.208;2023-03-26T02:46:47;98122.41;;;7.25;nan
7888;BME280;3989;48.810;9.208;2023-03-26T02:49:14;98151.38;;;7.43;nan
7888;BME280;3989;48.810;9.208;2023-03-26T02:51:40;98112.16;;;7.22;nan
7888;BME280;3989;48.810;9.208;2023-03-26T02:54:07;98134.47;;;7.36;nan
7888;BME280;3989;48.810;9.208;2023-03-26T02:56:34;98084.56;;;7.01;nan
7888;BME280;3989;48.810;9.208;2023-03-26T02:59:01;98135.94;;;7.38;nan
7888;BME280;3989;48.810;9.208;2023-03-26T03:01:27;98140.06;;;7.41;nan
7888;BME280;3989;48.810;9.208;2023-03-26T03:03:56;98131.75;;;7.44;nan
7888;BME280;3989;48.810;9.208;2023-03-26T03:06:22;98119.97;;;7.47;nan
7888;BME280;3989;48.810;9.208;2023-03-26T03:08:50;98112.53;;;7.42;nan
7888;BME280;3989;48.810;9.208;2023-03-26T03:11:18;98044.09;;;6.99;nan
7888;BME280;3989;48.810;9.208;2023-03-26T03:13:47;98024.28;;;6.86;nan
7888;BME280;3989;48.810;9.208;2023-03-26T03:16:14;98000.34;;;6.72;nan
7888;BME280;3989;48.810;9.208;2023-03-26T03:18:41;98096.25;;;7.45;nan
7888;BME280;3989;48.810;9.208;2023-03-26T03:21:09;98086.47;;;7.46;nan
7888;BME280;3989;48.810;9.208;2023-03-26T03:23:35;98093.91;;;7.50;nan
7888;BME280;3989;48.810;9.208;2023-03-26T03:26:02;98060.69;;;7.31;nan
7888;BME280;3989;48.810;9.208;2023-03-26T03:28:31;98082.78;;;7.47;nan
7888;BME280;3989;48.810;9.208;2023-03-26T03:30:57;98074.66;;;7.48;nan
7888;BME280;3989;48.810;9.208;2023-03-26T03:33:24;98025.75;;;7.20;nan
7888;BME280;3989;48.810;9.208;2023-03-26T03:35:50;97991.53;;;7.02;nan
7888;BME280;3989;48.810;9.208;2023-03-26T03:38:18;97957.22;;;6.78;nan
7888;BME280;3989;48.810;9.208;2023-03-26T03:40:45;98055.91;;;7.50;nan
7888;BME280;3989;48.810;9.208;2023-03-26T03:43:11;98053.06;;;7.51;nan
7888;BME280;3989;48.810;9.208;2023-03-26T03:45:38;98048.13;;;7.48;nan
7888;BME280;3989;48.810;9.208;2023-03-26T03:48:05;98015.28;;;7.26;nan
7888;BME280;3989;48.810;9.208;2023-03-26T03:50:31;98050.59;;;7.50;nan
7888;BME280;3989;48.810;9.208;2023-03-26T03:52:58;98043.66;;;7.49;nan
7888;BME280;3989;48.810;9.208;2023-03-26T03:55:26;98031.44;;;7.39;nan
7888;BME280;3989;48.810;9.208;2023-03-26T03:57:54;98012.25;;;7.29;nan
7888;BME280;3989;48.810;9.208;2023-03-26T04:00:21;98039.16;;;7.49;nan
7888;BME280;3989;48.810;9.208;2023-03-26T04:02:48;97998.53;;;7.26;nan
7888;BME280;3989;48.810;9.208;2023-03-26T04:05:18;98026.41;;;7.45;nan
7888;BME280;3989;48.810;9.208;2023-03-26T04:07:45;97957.38;;;7.07;nan
7888;BME280;3989;48.810;9.208;2023-03-26T04:10:14;98024.50;;;7.53;nan
7888;BME280;3989;48.810;9.208;2023-03-26T04:12:42;97997.72;;;7.40;nan
7888;BME280;3989;48.810;9.208;2023-03-26T04:15:09;98027.84;;;7.55;nan
7888;BME280;3989;48.810;9.208;2023-03-26T04:17:35;98023.16;;;7.57;nan
7888;BME280;3989;48.810;9.208;2023-03-26T04:20:07;98000.81;;;7.52;nan
7888;BME280;3989;48.810;9.208;2023-03-26T04:22:34;97995.50;;;7.52;nan
7888;BME280;3989;48.810;9.208;2023-03-26T04:25:01;97980.91;;;7.48;nan
7888;BME280;3989;48.810;9.208;2023-03-26T04:27:30;97999.94;;;7.59;nan
7888;BME280;3989;48.810;9.208;2023-03-26T04:30:02;97978.09;;;7.49;nan
7888;BME280;3989;48.810;9.208;2023-03-26T04:32:31;97906.75;;;7.09;nan
7888;BME280;3989;48.810;9.208;2023-03-26T04:34:59;97989.63;;;7.56;nan
7888;BME280;3989;48.810;9.208;2023-03-26T04:37:30;97923.75;;;7.22;nan
7888;BME280;3989;48.810;9.208;2023-03-26T04:39:58;97966.81;;;7.47;nan
7888;BME280;3989;48.810;9.208;2023-03-26T04:42:26;97968.59;;;7.55;nan
7888;BME280;3989;48.810;9.208;2023-03-26T04:44:53;97960.00;;;7.53;nan
7888;BME280;3989;48.810;9.208;2023-03-26T04:47:21;97932.41;;;7.39;nan
7888;BME280;3989;48.810;9.208;2023-03-26T04:49:47;97949.25;;;7.46;nan
7888;BME280;3989;48.810;9.208;2023-03-26T04:52:14;97937.34;;;7.42;nan
7888;BME280;3989;48.810;9.208;2023-03-26T04:54:42;97932.97;;;7.49;nan
7888;BME280;3989;48.810;9.208;2023-03-26T04:57:14;97928.13;;;7.53;nan
7888;BME280;3989;48.810;9.208;2023-03-26T04:59:43;97909.44;;;7.46;nan
7888;BME280;3989;48.810;9.208;2023-03-26T05:02:10;97921.69;;;7.47;nan
7888;BME280;3989;48.810;9.208;2023-03-26T05:04:38;97920.84;;;7.47;nan
7888;BME280;3989;48.810;9.208;2023-03-26T05:07:05;97889.19;;;7.45;nan
7888;BME280;3989;48.810;9.208;2023-03-26T05:09:33;97925.66;;;7.66;nan
7888;BME280;3989;48.810;9.208;2023-03-26T05:12:00;97890.88;;;7.46;nan
7888;BME280;3989;48.810;9.208;2023-03-26T05:14:27;97899.38;;;7.56;nan
7888;BME280;3989;48.810;9.208;2023-03-26T05:16:53;97922.47;;;7.70;nan
7888;BME280;3989;48.810;9.208;2023-03-26T05:19:21;97832.88;;;7.20;nan
7888;BME280;3989;48.810;9.208;2023-03-26T05:21:49;97927.34;;;7.81;nan
7888;BME280;3989;48.810;9.208;2023-03-26T05:24:15;97917.72;;;7.80;nan
7888;BME280;3989;48.810;9.208;2023-03-26T05:26:43;97898.09;;;7.67;nan
7888;BME280;3989;48.810;9.208;2023-03-26T05:29:11;97919.75;;;7.78;nan
7888;BME280;3989;48.810;9.208;2023-03-26T05:31:37;97899.97;;;7.81;nan
7888;BME280;3989;48.810;9.208;2023-03-26T05:34:04;97904.25;;;7.82;nan
7888;BME280;3989;48.810;9.208;2023-03-26T05:36:31;97887.13;;;7.84;nan
7888;BME280;3989;48.810;9.208;2023-03-26T05:38:59;97857.72;;;7.71;nan
7888;BME280;3989;48.810;9.208;2023-03-26T05:41:25;97861.38;;;7.70;nan
7888;BME280;3989;48.810;9.208;2023-03-26T05:43:52;97873.50;;;7.87;nan
7888;BME280;3989;48.810;9.208;2023-03-26T05:46:18;97876.97;;;7.88;nan
7888;BME280;3989;48.810;9.208;2023-03-26T05:48:47;97870.00;;;7.87;nan
7888;BME280;3989;48.810;9.208;2023-03-26T05:51:14;97873.00;;;7.99;nan
7888;BME280;3989;48.810;9.208;2023-03-26T05:53:40;97853.88;;;7.88;nan
7888;BME280;3989;48.810;9.208;2023-03-26T05:56:09;97854.41;;;7.99;nan
7888;BME280;3989;48.810;9.208;2023-03-26T05:58:36;97855.59;;;7.96;nan
7888;BME280;3989;48.810;9.208;2023-03-26T06:01:05;97810.03;;;7.78;nan
7888;BME280;3989;48.810;9.208;2023-03-26T06:03:33;97822.66;;;7.90;nan
7888;BME280;3989;48.810;9.208;2023-03-26T06:06:00;97823.38;;;7.84;nan
7888;BME280;3989;48.810;9.208;2023-03-26T06:08:28;97845.16;;;8.09;nan
7888;BME280;3989;48.810;9.208;2023-03-26T06:10:59;97824.09;;;8.08;nan
7888;BME280;3989;48.810;9.208;2023-03-26T06:13:27;97810.97;;;8.06;nan
7888;BME280;3989;48.810;9.208;2023-03-26T06:15:53;97779.41;;;7.82;nan
7888;BME280;3989;48.810;9.208;2023-03-26T06:18:21;97801.34;;;8.05;nan
7888;BME280;3989;48.810;9.208;2023-03-26T06:20:48;97775.00;;;7.89;nan
7888;BME280;3989;48.810;9.208;2023-03-26T06:23:15;97792.22;;;8.08;nan
7888;BME280;3989;48.810;9.208;2023-03-26T06:25:42;97778.19;;;7.99;nan
7888;BME280;3989;48.810;9.208;2023-03-26T06:28:10;97788.97;;;8.12;nan
7888;BME280;3989;48.810;9.208;2023-03-26T06:30:38;97651.81;;;7.33;nan
7888;BME280;3989;48.810;9.208;2023-03-26T06:33:05;97688.03;;;7.76;nan
7888;BME280;3989;48.810;9.208;2023-03-26T06:35:32;97748.75;;;8.15;nan
7888;BME280;3989;48.810;9.208;2023-03-26T06:37:59;97771.63;;;8.31;nan
7888;BME280;3989;48.810;9.208;2023-03-26T06:40:26;97772.91;;;8.35;nan
7888;BME280;3989;48.810;9.208;2023-03-26T06:42:53;97766.31;;;8.31;nan
7888;BME280;3989;48.810;9.208;2023-03-26T06:45:21;97693.25;;;7.84;nan
7888;BME280;3989;48.810;9.208;2023-03-26T06:47:49;97711.41;;;8.02;nan
7888;BME280;3989;48.810;9.208;2023-03-26T06:50:18;97662.13;;;7.78;nan
7888;BME280;3989;48.810;9.208;2023-03-26T06:52:44;97657.44;;;7.80;nan
7888;BME280;3989;48.810;9.208;2023-03-26T06:55:11;97750.09;;;8.47;nan
7888;BME280;3989;48.810;9.208;2023-03-26T06:57:38;97759.97;;;8.53;nan
7888;BME280;3989;48.810;9.208;2023-03-26T07:00:06;97730.88;;;8.45;nan
7888;BME280;3989;48.810;9.208;2023-03-26T07:02:34;97732.75;;;8.51;nan
7888;BME280;3989;48.810;9.208;2023-03-26T07:05:03;97746.00;;;8.66;nan
7888;BME280;3989;48.810;9.208;2023-03-26T07:07:30;97719.09;;;8.54;nan
7888;BME280;3989;48.810;9.208;2023-03-26T07:09:56;97735.41;;;8.72;nan
7888;BME280;3989;48.810;9.208;2023-03-26T07:12:23;97661.47;;;8.33;nan
7888;BME280;3989;48.810;9.208;2023-03-26T07:14:50;97727.69;;;8.77;nan
7888;BME280;3989;48.810;9.208;2023-03-26T07:17:17;97730.34;;;8.77;nan
7888;BME280;3989;48.810;9.208;2023-03-26T07:19:44;97665.63;;;8.42;nan
7888;BME280;3989;48.810;9.208;2023-03-26T07:22:19;97620.56;;;8.13;nan
7888;BME280;3989;48.810;9.208;2023-03-26T07:24:49;97654.94;;;8.36;nan
7888;BME280;3989;48.810;9.208;2023-03-26T07:27:25;97659.81;;;8.32;nan
7888;BME280;3989;48.810;9.208;2023-03-26T07:29:58;97627.47;;;8.08;nan
7888;BME280;3989;48.810;9.208;2023-03-26T07:32:33;97706.28;;;8.64;nan
7888;BME280;3989;48.810;9.208;2023-03-26T07:35:04;97667.94;;;8.52;nan
7888;BME280;3989;48.810;9.208;2023-03-26T07:37:45;97578.78;;;8.01;nan
7888;BME280;3989;48.810;9.208;2023-03-26T07:40:18;97687.44;;;8.59;nan
7888;BME280;3989;48.810;9.208;2023-03-26T07:42:58;97666.25;;;8.44;nan
7888;BME280;3989;48.810;9.208;2023-03-26T07:45:30;97631.97;;;8.07;nan
7888;BME280;3989;48.810;9.208;2023-03-26T07:47:59;97610.13;;;7.90;nan
7888;BME280;3989;48.810;9.208;2023-03-26T07:50:34;97658.88;;;8.25;nan
7888;BME280;3989;48.810;9.208;2023-03-26T07:53:03;97645.53;;;8.19;nan
7888;BME280;3989;48.810;9.208;2023-03-26T07:55:30;97661.47;;;8.33;nan
7888;BME280;3989;48.810;9.208;2023-03-26T07:58:15;97654.66;;;8.31;nan
7888;BME280;3989;48.810;9.208;2023-03-26T08:00:53;97664.41;;;8.24;nan
7888;BME280;3989;48.810;9.208;2023-03-26T08:06:24;97587.50;;;7.73;nan
7888;BME280;3989;48.810;9.208;2023-03-26T08:08:58;97623.59;;;7.89;nan
7888;BME280;3989;48.810;9.208;2023-03-26T08:11:32;97657.56;;;8.15;nan
7888;BME280;3989;48.810;9.208;2023-03-26T08:14:09;97532.56;;;7.31;nan
7888;BME280;3989;48.810;9.208;2023-03-26T08:16:41;97596.34;;;7.80;nan
7888;BME280;3989;48.810;9.208;2023-03-26T08:19:20;97641.94;;;8.05;nan
7888;BME280;3989;48.810;9.208;2023-03-26T08:21:54;97624.25;;;7.91;nan
7888;BME280;3989;48.810;9.208;2023-03-26T08:24:33;97624.56;;;8.03;nan
7888;BME280;3989;48.810;9.208;2023-03-26T08:27:05;97570.28;;;7.69;nan
7888;BME280;3989;48.810;9.208;2023-03-26T08:29:40;97586.34;;;7.82;nan
7888;BME280;3989;48.810;9.208;2023-03-26T08:32:15;97579.09;;;7.91;nan
7888;BME280;3989;48.810;9.208;2023-03-26T08:34:42;97590.78;;;7.97;nan
7888;BME280;3989;48.810;9.208;2023-03-26T08:37:09;97614.03;;;8.16;nan
7888;BME280;3989;48.810;9.208;2023-03-26T08:39:37;97593.38;;;7.90;nan
7888;BME280;3989;48.810;9.208;2023-03-26T08:42:33;97608.16;;;8.20;nan
7888;BME280;3989;48.810;9.208;2023-03-26T08:45:21;97572.53;;;8.15;nan
7888;BME280;3989;48.810;9.208;2023-03-26T08:48:25;97603.59;;;8.35;nan
7888;BME280;3989;48.810;9.208;2023-03-26T08:51:26;97602.38;;;8.38;nan
7888;BME280;3989;48.810;9.208;2023-03-26T08:54:13;97554.88;;;8.28;nan
7888;BME280;3989;48.810;9.208;2023-03-26T08:56:51;97605.50;;;8.76;nan
7888;BME280;3989;48.810;9.208;2023-03-26T09:02:38;97598.69;;;9.01;nan
7888;BME280;3989;48.810;9.208;2023-03-26T09:11:42;97542.03;;;9.07;nan
7888;BME280;3989;48.810;9.208;2023-03-26T09:14:54;97584.81;;;9.86;nan
7888;BME280;3989;48.810;9.208;2023-03-26T09:17:55;97559.41;;;9.96;nan
7888;BME280;3989;48.810;9.208;2023-03-26T09:20:51;97594.47;;;10.13;nan
7888;BME280;3989;48.810;9.208;2023-03-26T09:23:37;97609.03;;;10.11;nan
7888;BME280;3989;48.810;9.208;2023-03-26T09:26:23;97588.31;;;9.99;nan
7888;BME280;3989;48.810;9.208;2023-03-26T09:34:59;97576.81;;;9.99;nan
7888;BME280;3989;48.810;9.208;2023-03-26T09:37:39;97325.81;;;8.79;nan
7888;BME280;3989;48.810;9.208;2023-03-26T09:40:14;97574.75;;;10.67;nan
7888;BME280;3989;48.810;9.208;2023-03-26T09:42:43;97582.94;;;11.42;nan
7888;BME280;3989;48.810;9.208;2023-03-26T09:45:46;97579.75;;;11.96;nan
7888;BME280;3989;48.810;9.208;2023-03-26T09:51:32;97570.44;;;12.73;nan
7888;BME280;3989;48.810;9.208;2023-03-26T09:54:12;97573.13;;;12.73;nan
7888;BME280;3989;48.810;9.208;2023-03-26T09:56:50;97434.28;;;12.04;nan
7888;BME280;3989;48.810;9.208;2023-03-26T09:59:45;97515.34;;;12.84;nan
7888;BME280;3989;48.810;9.208;2023-03-26T10:05:29;97570.88;;;14.02;nan
7888;BME280;3989;48.810;9.208;2023-03-26T10:08:14;97518.31;;;13.60;nan
7888;BME280;3989;48.810;9.208;2023-03-26T10:10:51;97517.81;;;13.51;nan
7888;BME280;3989;48.810;9.208;2023-03-26T10:13:27;97446.06;;;13.05;nan
7888;BME280;3989;48.810;9.208;2023-03-26T10:16:14;97557.78;;;13.53;nan
7888;BME280;3989;48.810;9.208;2023-03-26T10:18:54;97551.28;;;12.94;nan
7888;BME280;3989;48.810;9.208;2023-03-26T10:21:33;97522.75;;;12.27;nan
7888;BME280;3989;48.810;9.208;2023-03-26T10:24:15;97553.31;;;12.13;nan
7888;BME280;3989;48.810;9.208;2023-03-26T10:26:58;97553.69;;;11.92;nan
7888;BME280;3989;48.810;9.208;2023-03-26T10:29:53;97494.91;;;11.54;nan
7888;BME280;3989;48.810;9.208;2023-03-26T10:32:25;97557.69;;;12.07;nan
7888;BME280;3989;48.810;9.208;2023-03-26T10:35:07;97553.28;;;12.38;nan
7888;BME280;3989;48.810;9.208;2023-03-26T10:37:46;97522.13;;;12.68;nan
7888;BME280;3989;48.810;9.208;2023-03-26T10:40:24;97505.59;;;13.26;nan
7888;BME280;3989;48.810;9.208;2023-03-26T10:46:00;97543.78;;;14.45;nan
7888;BME280;3989;48.810;9.208;2023-03-26T10:48:39;97441.19;;;13.97;nan
7888;BME280;3989;48.810;9.208;2023-03-26T10:51:21;97448.44;;;13.96;nan
7888;BME280;3989;48.810;9.208;2023-03-26T10:53:55;97552.91;;;14.79;nan
7888;BME280;3989;48.810;9.208;2023-03-26T10:56:26;97488.22;;;14.69;nan
7888;BME280;3989;48.810;9.208;2023-03-26T10:58:54;97567.47;;;14.83;nan
7888;BME280;3989;48.810;9.208;2023-03-26T11:01:31;97562.16;;;14.18;nan
7888;BME280;3989;48.810;9.208;2023-03-26T11:04:06;97566.06;;;13.81;nan
7888;BME280;3989;48.810;9.208;2023-03-26T11:06:40;97578.50;;;13.46;nan
7888;BME280;3989;48.810;9.208;2023-03-26T11:09:23;97572.66;;;13.19;nan
7888;BME280;3989;48.810;9.208;2023-03-26T11:11:59;97562.50;;;13.03;nan
7888;BME280;3989;48.810;9.208;2023-03-26T11:14:32;97407.16;;;11.82;nan
7888;BME280;3989;48.810;9.208;2023-03-26T11:17:11;97508.38;;;12.22;nan
7888;BME280;3989;48.810;9.208;2023-03-26T11:19:47;97543.06;;;12.53;nan
7888;BME280;3989;48.810;9.208;2023-03-26T11:22:22;97497.34;;;12.54;nan
7888;BME280;3989;48.810;9.208;2023-03-26T11:25:20;97543.91;;;13.08;nan
7888;BME280;3989;48.810;9.208;2023-03-26T11:28:00;97552.28;;;13.48;nan
7888;BME280;3989;48.810;9.208;2023-03-26T11:30:38;97537.09;;;13.72;nan
7888;BME280;3989;48.810;9.208;2023-03-26T11:33:09;97503.34;;;13.82;nan
7888;BME280;3989;48.810;9.208;2023-03-26T11:35:40;97514.94;;;14.29;nan
7888;BME280;3989;48.810;9.208;2023-03-26T11:38:13;97348.03;;;14.04;nan
7888;BME280;3989;48.810;9.208;2023-03-26T11:40:45;97520.47;;;15.09;nan
7888;BME280;3989;48.810;9.208;2023-03-26T11:43:18;97525.91;;;15.25;nan
7888;BME280;3989;48.810;9.208;2023-03-26T11:45:47;97511.63;;;15.08;nan
7888;BME280;3989;48.810;9.208;2023-03-26T11:48:18;97517.84;;;15.37;nan
7888;BME280;3989;48.810;9.208;2023-03-26T11:50:49;97504.50;;;15.87;nan
7888;BME280;3989;48.810;9.208;2023-03-26T11:53:19;97486.59;;;15.93;nan
7888;BME280;3989;48.810;9.208;2023-03-26T11:55:54;97497.44;;;16.14;nan
7888;BME280;3989;48.810;9.208;2023-03-26T11:58:27;97506.81;;;15.95;nan
7888;BME280;3989;48.810;9.208;2023-03-26T12:00:55;97356.34;;;15.10;nan
7888;BME280;3989;48.810;9.208;2023-03-26T12:03:23;97420.63;;;15.73;nan
7888;BME280;3989;48.810;9.208;2023-03-26T12:05:51;97381.75;;;15.48;nan
7888;BME280;3989;48.810;9.208;2023-03-26T12:08:29;97476.16;;;15.51;nan
7888;BME280;3989;48.810;9.208;2023-03-26T12:11:04;97474.75;;;14.92;nan
7888;BME280;3989;48.810;9.208;2023-03-26T12:13:34;97540.88;;;14.70;nan
7888;BME280;3989;48.810;9.208;2023-03-26T12:16:14;97554.03;;;13.84;nan
7888;BME280;3989;48.810;9.208;2023-03-26T12:18:42;97560.66;;;13.03;nan
7888;BME280;3989;48.810;9.208;2023-03-26T12:21:11;97527.53;;;12.43;nan
7888;BME280;3989;48.810;9.208;2023-03-26T12:23:48;97543.88;;;12.10;nan
7888;BME280;3989;48.810;9.208;2023-03-26T12:26:18;97546.59;;;11.79;nan
7888;BME280;3989;48.810;9.208;2023-03-26T12:28:48;97498.28;;;11.43;nan
7888;BME280;3989;48.810;9.208;2023-03-26T12:31:16;97512.56;;;11.55;nan
7888;BME280;3989;48.810;9.208;2023-03-26T12:33:45;97503.03;;;11.72;nan
7888;BME280;3989;48.810;9.208;2023-03-26T12:36:19;97529.28;;;12.06;nan
7888;BME280;3989;48.810;9.208;2023-03-26T12:38:47;97480.75;;;11.85;nan
7888;BME280;3989;48.810;9.208;2023-03-26T12:41:17;97519.94;;;12.16;nan
7888;BME280;3989;48.810;9.208;2023-03-26T12:43:45;97390.03;;;11.40;nan
7888;BME280;3989;48.810;9.208;2023-03-26T12:46:22;97523.44;;;12.16;nan
7888;BME280;3989;48.810;9.208;2023-03-26T12:48:50;97457.81;;;11.08;nan
7888;BME280;3989;48.810;9.208;2023-03-26T12:51:25;97339.69;;;9.86;nan
7888;BME280;3989;48.810;9.208;2023-03-26T12:54:17;97518.41;;;10.50;nan
7888;BME280;3989;48.810;9.208;2023-03-26T12:57:00;97373.56;;;9.59;nan
7888;BME280;3989;48.810;9.208;2023-03-26T12:59:42;97439.44;;;10.36;nan
7888;BME280;3989;48.810;9.208;2023-03-26T13:02:40;97444.41;;;10.77;nan
7888;BME280;3989;48.810;9.208;2023-03-26T13:05:27;97460.19;;;11.23;nan
7888;BME280;3989;48.810;9.208;2023-03-26T13:08:10;97476.88;;;11.49;nan
7888;BME280;3989;48.810;9.208;2023-03-26T13:10:49;97387.94;;;11.18;nan
7888;BME280;3989;48.810;9.208;2023-03-26T13:13:41;97438.09;;;11.65;nan
7888;BME280;3989;48.810;9.208;2023-03-26T13:16:15;97472.47;;;11.86;nan
7888;BME280;3989;48.810;9.208;2023-03-26T13:18:51;97437.41;;;11.76;nan
7888;BME280;3989;48.810;9.208;2023-03-26T13:21:27;97461.13;;;12.16;nan
7888;BME280;3989;48.810;9.208;2023-03-26T13:24:00;97218.63;;;11.00;nan
7888;BME280;3989;48.810;9.208;2023-03-26T13:26:41;97474.91;;;12.74;nan
7888;BME280;3989;48.810;9.208;2023-03-26T13:29:18;97295.63;;;11.89;nan
7888;BME280;3989;48.810;9.208;2023-03-26T13:31:51;97451.66;;;13.22;nan
7888;BME280;3989;48.810;9.208;2023-03-26T13:34:26;97336.94;;;12.59;nan
7888;BME280;3989;48.810;9.208;2023-03-26T13:37:03;97266.69;;;12.34;nan
7888;BME280;3989;48.810;9.208;2023-03-26T13:39:40;97305.22;;;12.75;nan
7888;BME280;3989;48.810;9.208;2023-03-26T13:42:21;97320.66;;;12.91;nan
7888;BME280;3989;48.810;9.208;2023-03-26T13:44:57;97401.53;;;13.41;nan
7888;BME280;3989;48.810;9.208;2023-03-26T13:47:30;97440.25;;;13.80;nan
7888;BME280;3989;48.810;9.208;2023-03-26T13:50:02;97446.78;;;13.72;nan
7888;BME280;3989;48.810;9.208;2023-03-26T13:52:34;97448.84;;;13.70;nan
7888;BME280;3989;48.810;9.208;2023-03-26T13:55:17;97433.13;;;13.62;nan
7888;BME280;3989;48.810;9.208;2023-03-26T13:57:48;97136.25;;;12.06;nan
7888;BME280;3989;48.810;9.208;2023-03-26T14:00:23;97414.88;;;14.05;nan
7888;BME280;3989;48.810;9.208;2023-03-26T14:02:55;97240.16;;;13.27;nan
7888;BME280;3989;48.810;9.208;2023-03-26T14:05:27;97380.53;;;14.31;nan
7888;BME280;3989;48.810;9.208;2023-03-26T14:08:00;97337.66;;;14.07;nan
7888;BME280;3989;48.810;9.208;2023-03-26T14:10:33;97260.19;;;13.48;nan
7888;BME280;3989;48.810;9.208;2023-03-26T14:13:04;97344.78;;;13.90;nan
7888;BME280;3989;48.810;9.208;2023-03-26T14:15:40;97370.66;;;14.08;nan
7888;BME280;3989;48.810;9.208;2023-03-26T14:18:21;97372.84;;;14.23;nan
7888;BME280;3989;48.810;9.208;2023-03-26T14:21:24;97415.19;;;14.32;nan
7888;BME280;3989;48.810;9.208;2023-03-26T14:24:07;97395.72;;;13.90;nan
7888;BME280;3989;48.810;9.208;2023-03-26T14:26:56;97418.78;;;13.80;nan
7888;BME280;3989;48.810;9.208;2023-03-26T14:29:29;97341.41;;;13.07;nan
7888;BME280;3989;48.810;9.208;2023-03-26T14:32:13;97299.44;;;12.48;nan
7888;BME280;3989;48.810;9.208;2023-03-26T14:34:56;97450.03;;;13.21;nan
7888;BME280;3989;48.810;9.208;2023-03-26T14:37:41;97409.66;;;12.20;nan
7888;BME280;3989;48.810;9.208;2023-03-26T14:40:23;97349.00;;;10.72;nan
7888;BME280;3989;48.810;9.208;2023-03-26T14:42:56;97525.56;;;11.14;nan
7888;BME280;3989;48.810;9.208;2023-03-26T14:45:44;97489.44;;;10.40;nan
7888;BME280;3989;48.810;9.208;2023-03-26T14:48:42;97385.41;;;8.98;nan
7888;BME280;3989;48.810;9.208;2023-03-26T14:51:26;97459.59;;;8.73;nan
7888;BME280;3989;48.810;9.208;2023-03-26T14:53:59;97532.84;;;8.69;nan
7888;BME280;3989;48.810;9.208;2023-03-26T14:56:41;97467.81;;;8.03;nan
7888;BME280;3989;48.810;9.208;2023-03-26T15:08:45;97499.31;;;8.33;nan
7888;BME280;3989;48.810;9.208;2023-03-26T15:11:22;97509.63;;;8.50;nan
7888;BME280;3989;48.810;9.208;2023-03-26T15:14:09;97464.81;;;8.40;nan
7888;BME280;3989;48.810;9.208;2023-03-26T15:20:34;97467.00;;;8.30;nan
7888;BME280;3989;48.810;9.208;2023-03-26T15:23:32;97534.44;;;8.63;nan
7888;BME280;3989;48.810;9.208;2023-03-26T15:29:47;97545.31;;;8.34;nan